Decoded Metar for KBNA (NASHVILLE in TN, USA) (IATA:BNA) | Meteo·Mobile Aviation Weather
aviador You're here:

KBNA Decoded Metar

NASHVILLE in TN, USA
Report Time2019-01-21 23:53:00
UTC Time2019-01-22 00:03:37
Flight Rules vfr VFR
Wind090° at 07 kt
W.Decomp.*RWY 13: 5.6 kt HW 4.2 kt LCW
RWY 02: 2.0 kt HW 6.7 kt RCW
W.Rank090° ranks 34
Current wind is above 090° avg. (5.0)
Visibility9999 m
Phenomena:N/A
Clouds:Broken 250 Hf
Expected CloudBase > 4,000 ft AGL from Temp-Dew spread
Ceiling25,000 ft
Temp-2°C (ISA -16)
Dew Point-12°C (47% RH)
AAT-7.7°C
QNH1030 hPa
Density Alt-1,768 ft
Elevation689 ft
Report Wrong Elevation
Raw Report
METAR KBNA 212353Z 09007KT 10SM BKN250 M02/M12 A3042 RMK AO2 SLP309
T10171122 10000 21022 58008=

Extra information for KBNA:More info

Metar Taf Metar & Taf Last 4 Metars F.Rules Stats Wind Profile Meteogram Temp Stats Airport Information Weather charts Add Link Nearby VenuesMetar ALERT Operation Metar Decoded Social comments

AIRNAV info for KBNA